sensor_id;sensor_type;location;lat;lon;timestamp;P1;P2;P0
47709;PMS7003;33473;51.640;5.892;2022-09-12T00:07:37;7.93;10.36;7.97
47709;PMS7003;33473;51.640;5.892;2022-09-12T00:20:57;6.73;9.17;6.77
47709;PMS7003;33473;51.640;5.892;2022-09-12T00:34:17;9.25;11.67;8.73
47709;PMS7003;33473;51.640;5.892;2022-09-12T00:47:36;3.48;6.22;4.7
47709;PMS7003;33473;51.640;5.892;2022-09-12T01:00:56;9.97;11.45;8.18
47709;PMS7003;33473;51.640;5.892;2022-09-12T01:14:16;2.04;5.02;4.04
47709;PMS7003;33473;51.640;5.892;2022-09-12T01:27:36;12.13;14.18;9.93
47709;PMS7003;33473;51.640;5.892;2022-09-12T01:40:56;16.09;17.23;11.56
47709;PMS7003;33473;51.640;5.892;2022-09-12T01:54:15;16.21;17.45;11.67
47709;PMS7003;33473;51.640;5.892;2022-09-12T02:07:35;12.73;14.51;10.26
47709;PMS7003;33473;51.640;5.892;2022-09-12T02:20:55;6.49;9.17;6.66
47709;PMS7003;33473;51.640;5.892;2022-09-12T02:34:15;8.29;10.58;7.53
47709;PMS7003;33473;51.640;5.892;2022-09-12T02:47:35;12.61;14.62;10.15
47709;PMS7003;33473;51.640;5.892;2022-09-12T03:00:55;17.17;17.67;11.67
47709;PMS7003;33473;51.640;5.892;2022-09-12T03:14:14;21.61;20.28;13.2
47709;PMS7003;33473;51.640;5.892;2022-09-12T03:27:34;19.93;19.3;12.76
47709;PMS7003;33473;51.640;5.892;2022-09-12T03:40:54;19.09;18.21;12.33
47709;PMS7003;33473;51.640;5.892;2022-09-12T03:54:14;19.93;18.87;12.33
47709;PMS7003;33473;51.640;5.892;2022-09-12T04:07:34;22.69;21.05;13.53
47709;PMS7003;33473;51.640;5.892;2022-09-12T04:20:54;22.21;20.72;13.09
47709;PMS7003;33473;51.640;5.892;2022-09-12T04:34:13;19.33;18.87;12.33
47709;PMS7003;33473;51.640;5.892;2022-09-12T04:47:33;19.45;19.08;12.44
47709;PMS7003;33473;51.640;5.892;2022-09-12T05:00:53;21.01;20.07;13.09
47709;PMS7003;33473;51.640;5.892;2022-09-12T05:14:13;24.73;22.25;13.85
47709;PMS7003;33473;51.640;5.892;2022-09-12T05:27:33;23.65;21.05;13.74
47709;PMS7003;33473;51.640;5.892;2022-09-12T05:40:53;26.77;23.34;14.72
47709;PMS7003;33473;51.640;5.892;2022-09-12T05:54:12;30.85;26.28;16.03
47709;PMS7003;33473;51.640;5.892;2022-09-12T06:07:32;33.74;27.59;17.12
47709;PMS7003;33473;51.640;5.892;2022-09-12T06:20:55;34.94;28.68;17.56
47709;PMS7003;33473;51.640;5.892;2022-09-12T06:34:15;36.74;29.0;17.67
47709;PMS7003;33473;51.640;5.892;2022-09-12T06:47:34;35.06;28.57;17.45
47709;PMS7003;33473;51.640;5.892;2022-09-12T07:00:54;33.62;27.8;17.23
47709;PMS7003;33473;51.640;5.892;2022-09-12T07:14:14;34.58;28.79;17.89
47709;PMS7003;33473;51.640;5.892;2022-09-12T07:27:34;37.22;31.18;18.87
47709;PMS7003;33473;51.640;5.892;2022-09-12T07:40:54;37.46;30.31;18.65
47709;PMS7003;33473;51.640;5.892;2022-09-12T07:54:14;35.78;29.44;18.43
47709;PMS7003;33473;51.640;5.892;2022-09-12T08:07:34;33.86;27.48;17.78
47709;PMS7003;33473;51.640;5.892;2022-09-12T08:20:54;33.74;28.13;17.67
47709;PMS7003;33473;51.640;5.892;2022-09-12T08:34:13;31.45;26.17;16.8
47709;PMS7003;33473;51.640;5.892;2022-09-12T08:47:33;29.41;24.64;16.36
47709;PMS7003;33473;51.640;5.892;2022-09-12T09:00:53;27.97;24.43;15.92
47709;PMS7003;33473;51.640;5.892;2022-09-12T09:14:13;27.73;23.99;15.71
47709;PMS7003;33473;51.640;5.892;2022-09-12T09:27:33;23.77;21.7;14.72
47709;PMS7003;33473;51.640;5.892;2022-09-12T09:40:53;22.57;20.61;14.07
47709;PMS7003;33473;51.640;5.892;2022-09-12T09:54:13;19.93;19.41;12.98
47709;PMS7003;33473;51.640;5.892;2022-09-12T10:07:32;19.57;18.98;12.98
47709;PMS7003;33473;51.640;5.892;2022-09-12T10:20:52;15.13;16.58;11.56
47709;PMS7003;33473;51.640;5.892;2022-09-12T10:34:12;12.37;13.53;9.71
47709;PMS7003;33473;51.640;5.892;2022-09-12T10:47:32;8.65;11.13;8.4
47709;PMS7003;33473;51.640;5.892;2022-09-12T11:00:52;9.37;11.67;8.29
47709;PMS7003;33473;51.640;5.892;2022-09-12T11:14:12;6.13;8.73;6.55
47709;PMS7003;33473;51.640;5.892;2022-09-12T11:27:32;7.81;9.17;6.66
47709;PMS7003;33473;51.640;5.892;2022-09-12T11:40:51;6.25;8.95;6.55
